Time;durP1;ratioP1;P1;durP2;ratioP2;P2;SDS_P1;SDS_P2;PMS_P1;PMS_P2;Temp;Humidity;BMP_temperature;BMP_pressure;BME280_temperature;BME280_humidity;BME280_pressure;Samples;Min_cycle;Max_cycle;Signal;HPM_P1;HPM_P2
2021/08/21 00:02:02;;;;;;;3.35;3.05;;;16.10;99.90;;;;;;1992392;72;21475;-72
2021/08/21 00:04:28;;;;;;;7.28;4.03;;;16.10;99.90;;;;;;1993140;72;21120;-72
2021/08/21 00:06:54;;;;;;;4.17;3.30;;;16.10;99.90;;;;;;1953209;73;21128;-72
2021/08/21 00:09:20;;;;;;;6.97;2.95;;;16.10;99.90;;;;;;1992603;72;21044;-72
2021/08/21 00:11:49;;;;;;;6.00;3.52;;;16.10;99.90;;;;;;1993377;72;21051;-72
2021/08/21 00:14:14;;;;;;;3.47;3.12;;;16.10;99.90;;;;;;1952901;73;21581;-72
2021/08/21 00:16:40;;;;;;;4.55;3.08;;;16.10;99.90;;;;;;1994826;71;21439;-72
2021/08/21 00:19:06;;;;;;;4.40;3.22;;;16.10;99.90;;;;;;1993365;72;21479;-72
2021/08/21 00:21:32;;;;;;;3.90;3.45;;;16.10;99.90;;;;;;1953181;73;21447;-72
2021/08/21 00:23:58;;;;;;;3.80;3.35;;;16.10;99.90;;;;;;1993076;72;21533;-72
2021/08/21 00:26:24;;;;;;;4.87;3.40;;;16.10;99.90;;;;;;1993319;72;21548;-72
2021/08/21 00:28:51;;;;;;;4.42;3.62;;;16.10;99.90;;;;;;1953147;73;21504;-73
2021/08/21 00:31:17;;;;;;;3.65;3.17;;;16.00;99.90;;;;;;1992804;72;21007;-73
2021/08/21 00:33:43;;;;;;;5.87;3.47;;;16.00;99.90;;;;;;1993229;72;21112;-73
2021/08/21 00:36:09;;;;;;;3.25;3.05;;;16.00;99.90;;;;;;1953149;73;21157;-73
2021/08/21 00:38:36;;;;;;;3.47;3.02;;;15.90;99.90;;;;;;1993722;71;21112;-73
2021/08/21 00:41:02;;;;;;;5.17;3.45;;;15.90;99.90;;;;;;1993350;72;21055;-73
2021/08/21 00:43:30;;;;;;;9.45;3.70;;;15.80;99.90;;;;;;1953118;73;21099;-73
2021/08/21 00:45:57;;;;;;;3.20;3.00;;;15.90;99.90;;;;;;1993256;71;21047;-72
2021/08/21 00:48:23;;;;;;;4.53;3.55;;;15.90;99.90;;;;;;1993257;72;21051;-72
2021/08/21 00:50:49;;;;;;;7.83;4.10;;;15.80;99.90;;;;;;1953128;73;21075;-72
2021/08/21 00:53:15;;;;;;;7.80;3.85;;;15.80;99.90;;;;;;1993189;72;21020;-72
2021/08/21 00:55:41;;;;;;;4.25;3.80;;;15.80;99.90;;;;;;1993223;72;21168;-71
2021/08/21 00:58:07;;;;;;;4.58;3.42;;;15.70;99.90;;;;;;1953079;73;21075;-72
2021/08/21 01:00:33;;;;;;;5.50;4.20;;;15.70;99.90;;;;;;1993409;71;21137;-72
2021/08/21 01:02:59;;;;;;;4.95;4.25;;;15.60;99.90;;;;;;1993167;72;21050;-70
2021/08/21 01:05:26;;;;;;;10.63;3.70;;;15.60;99.90;;;;;;1953095;73;21075;-71
2021/08/21 01:07:52;;;;;;;4.67;3.65;;;15.60;99.90;;;;;;1993255;72;21078;-71
2021/08/21 01:10:18;;;;;;;5.95;4.62;;;15.60;99.90;;;;;;1993266;72;21016;-70
2021/08/21 01:12:44;;;;;;;6.08;4.15;;;15.50;99.90;;;;;;1953205;73;21095;-70
2021/08/21 01:15:10;;;;;;;6.05;4.20;;;15.50;99.90;;;;;;1993049;72;21096;-70
2021/08/21 01:17:36;;;;;;;4.65;4.20;;;15.50;99.90;;;;;;1993195;71;21059;-72
2021/08/21 01:20:02;;;;;;;5.08;4.50;;;15.40;99.90;;;;;;1953239;73;21042;-71
2021/08/21 01:22:28;;;;;;;4.30;3.83;;;15.40;99.90;;;;;;1978396;72;21064;-71
2021/08/21 01:24:55;;;;;;;6.00;4.17;;;15.40;99.90;;;;;;1976510;72;21088;-71
2021/08/21 01:27:21;;;;;;;4.90;3.90;;;15.40;99.90;;;;;;1952639;72;21534;-71
2021/08/21 01:29:47;;;;;;;6.05;3.47;;;15.50;99.90;;;;;;1985222;72;21476;-71
2021/08/21 01:32:13;;;;;;;4.95;4.00;;;15.50;99.90;;;;;;1976290;71;21527;-71
2021/08/21 01:34:39;;;;;;;3.95;3.50;;;15.50;99.90;;;;;;1954091;73;21459;-71
2021/08/21 01:37:05;;;;;;;5.42;3.50;;;15.50;99.90;;;;;;1989896;72;21472;-72
2021/08/21 01:39:31;;;;;;;4.08;3.67;;;15.60;99.90;;;;;;1976807;72;21476;-71
2021/08/21 01:41:57;;;;;;;3.37;3.08;;;15.60;99.90;;;;;;1949797;73;21055;-71
2021/08/21 01:44:23;;;;;;;9.20;3.50;;;15.60;99.90;;;;;;1992757;72;21109;-72
2021/08/21 01:46:50;;;;;;;3.25;2.98;;;15.50;99.90;;;;;;1993239;71;21051;-72
2021/08/21 01:49:16;;;;;;;3.42;3.12;;;15.50;99.90;;;;;;1953134;73;21072;-71
2021/08/21 01:51:42;;;;;;;4.12;3.72;;;15.50;99.90;;;;;;1993687;71;21083;-72
2021/08/21 01:54:08;;;;;;;3.80;3.47;;;15.50;99.90;;;;;;1996796;72;21052;-73
2021/08/21 01:56:34;;;;;;;3.37;2.98;;;15.40;99.90;;;;;;1956545;72;21086;-70
2021/08/21 01:59:00;;;;;;;3.85;3.45;;;15.40;99.90;;;;;;1993520;71;20996;-72
2021/08/21 02:01:26;;;;;;;4.55;3.50;;;15.40;99.90;;;;;;1993243;72;21101;-72
2021/08/21 02:03:52;;;;;;;5.58;3.70;;;15.40;99.90;;;;;;1953098;73;21095;-71
2021/08/21 02:06:19;;;;;;;5.08;3.55;;;15.40;99.90;;;;;;1993071;72;21040;-72
2021/08/21 02:08:45;;;;;;;5.33;3.33;;;15.30;99.90;;;;;;1993332;72;21020;-72
2021/08/21 02:11:11;;;;;;;4.17;3.77;;;15.30;99.90;;;;;;1953246;73;21047;-72
2021/08/21 02:13:37;;;;;;;6.25;3.75;;;15.30;99.90;;;;;;1993249;72;21013;-72
2021/08/21 02:16:03;;;;;;;4.25;3.85;;;15.30;99.90;;;;;;1993332;72;21039;-72
2021/08/21 02:18:29;;;;;;;3.33;3.02;;;15.30;99.90;;;;;;1953186;73;21019;-72
2021/08/21 02:20:55;;;;;;;7.45;3.67;;;15.20;99.90;;;;;;1993180;72;21100;-72
2021/08/21 02:23:21;;;;;;;5.30;3.65;;;15.20;99.90;;;;;;1993214;72;21117;-72
2021/08/21 02:25:55;;;;;;;4.58;3.60;;;15.20;99.90;;;;;;1953137;73;21076;-72
2021/08/21 02:28:19;;;;;;;3.72;3.42;;;15.10;99.90;;;;;;1991861;71;21016;-72
2021/08/21 02:30:46;;;;;;;;;;;15.10;99.90;;;;;;1996174;72;21129;-72
2021/08/21 02:33:12;;;;;;;3.67;3.22;;;15.00;99.90;;;;;;1972548;72;20145;-72
2021/08/21 02:35:38;;;;;;;4.80;4.08;;;15.00;99.90;;;;;;1972857;72;21012;-72
2021/08/21 02:38:04;;;;;;;3.55;3.30;;;15.00;99.90;;;;;;1971511;72;21042;-72
2021/08/21 02:40:30;;;;;;;5.87;3.85;;;14.90;99.90;;;;;;1988600;71;21039;-72
2021/08/21 02:42:56;;;;;;;4.15;3.42;;;14.90;99.90;;;;;;1979214;72;21015;-72
2021/08/21 02:45:22;;;;;;;4.17;3.75;;;14.90;99.90;;;;;;1979230;72;21165;-72
2021/08/21 02:47:49;;;;;;;5.08;3.90;;;14.90;99.90;;;;;;1979245;71;21063;-71
2021/08/21 02:50:15;;;;;;;6.65;3.90;;;14.90;99.90;;;;;;1979239;71;21064;-71
2021/08/21 02:52:41;;;;;;;6.78;3.80;;;14.80;99.90;;;;;;1979218;72;21065;-72
2021/08/21 02:55:07;;;;;;;8.43;3.90;;;14.80;99.90;;;;;;1979123;72;21038;-72
2021/08/21 02:57:33;;;;;;;7.72;4.28;;;14.80;99.90;;;;;;1979331;72;21035;-72
2021/08/21 02:59:59;;;;;;;4.22;3.83;;;14.70;99.90;;;;;;1979123;72;21142;-72
2021/08/21 03:02:25;;;;;;;4.42;4.03;;;14.70;99.90;;;;;;1979314;71;21037;-72
2021/08/21 03:04:52;;;;;;;6.40;4.28;;;14.70;99.90;;;;;;1979402;72;21160;-72
2021/08/21 03:07:18;;;;;;;7.42;4.42;;;14.70;99.90;;;;;;1980516;72;21503;-72
2021/08/21 03:09:44;;;;;;;5.25;4.30;;;14.70;99.90;;;;;;1974948;72;21483;-72
2021/08/21 03:12:11;;;;;;;5.15;3.98;;;14.70;99.90;;;;;;1978250;72;21420;-72
2021/08/21 03:14:37;;;;;;;6.65;4.45;;;14.60;99.90;;;;;;1979254;72;21475;-72
2021/08/21 03:17:03;;;;;;;6.97;4.22;;;14.60;99.90;;;;;;1977077;72;21548;-71
2021/08/21 03:19:29;;;;;;;4.40;3.83;;;14.60;99.90;;;;;;1970742;72;21043;-72
2021/08/21 03:21:55;;;;;;;3.90;3.33;;;14.60;99.90;;;;;;1962186;72;21032;-72
2021/08/21 03:24:21;;;;;;;6.25;4.15;;;14.50;99.90;;;;;;1975569;72;21125;-72
2021/08/21 03:26:47;;;;;;;4.20;3.83;;;14.50;99.90;;;;;;1952481;73;21136;-72
2021/08/21 03:29:13;;;;;;;10.13;4.90;;;14.50;99.90;;;;;;1993419;71;21133;-72
2021/08/21 03:31:40;;;;;;;4.20;3.85;;;14.50;99.90;;;;;;1977314;72;21025;-71
2021/08/21 03:34:06;;;;;;;4.92;4.12;;;14.40;99.90;;;;;;1948455;73;21147;-72
2021/08/21 03:36:32;;;;;;;6.05;4.25;;;14.50;99.90;;;;;;1993635;71;21135;-72
2021/08/21 03:38:59;;;;;;;6.03;4.25;;;14.40;99.90;;;;;;1993215;72;21067;-72
2021/08/21 03:41:25;;;;;;;4.65;4.25;;;14.40;99.90;;;;;;1953400;73;21067;-72
2021/08/21 03:43:51;;;;;;;4.78;4.22;;;14.40;99.90;;;;;;1992913;72;21087;-71
2021/08/21 03:46:17;;;;;;;5.95;4.53;;;14.40;99.90;;;;;;1993392;72;21087;-72
2021/08/21 03:48:44;;;;;;;5.97;4.15;;;14.40;99.90;;;;;;1953074;73;21095;-71
2021/08/21 03:51:10;;;;;;;4.90;4.15;;;14.30;99.90;;;;;;1993018;71;21201;-72
2021/08/21 03:53:36;;;;;;;8.38;3.90;;;14.30;99.90;;;;;;1993192;72;21020;-71
2021/08/21 03:56:02;;;;;;;4.58;3.90;;;14.30;99.90;;;;;;1953181;72;21119;-71
2021/08/21 03:58:28;;;;;;;5.00;4.28;;;14.30;99.90;;;;;;1993602;71;21047;-71
2021/08/21 04:00:54;;;;;;;4.12;3.70;;;14.30;99.90;;;;;;1993160;72;21475;-72
2021/08/21 04:03:21;;;;;;;6.50;4.47;;;14.30;99.90;;;;;;1953237;73;21487;-71
2021/08/21 04:05:47;;;;;;;5.40;3.98;;;14.20;99.90;;;;;;1992185;72;21381;-71
2021/08/21 04:08:13;;;;;;;4.55;4.15;;;14.20;99.90;;;;;;1993270;72;21483;-71
2021/08/21 04:10:39;;;;;;;5.78;3.92;;;14.20;99.90;;;;;;1953162;72;21051;-71
2021/08/21 04:13:05;;;;;;;4.55;3.58;;;14.20;99.90;;;;;;1995615;71;21112;-71
2021/08/21 04:15:31;;;;;;;5.65;3.22;;;14.10;99.90;;;;;;1993475;72;21103;-72
2021/08/21 04:17:57;;;;;;;4.65;4.08;;;14.10;99.90;;;;;;1953476;72;21027;-71
2021/08/21 04:20:24;;;;;;;7.42;4.15;;;14.10;99.90;;;;;;1985017;72;21064;-72
2021/08/21 04:22:50;;;;;;;6.28;3.90;;;14.10;99.90;;;;;;1993453;72;21083;-71
2021/08/21 04:25:16;;;;;;;4.70;4.20;;;14.10;99.90;;;;;;1953321;73;21132;-71
2021/08/21 04:27:43;;;;;;;3.87;3.47;;;14.10;99.90;;;;;;1993259;72;21108;-71
2021/08/21 04:30:09;;;;;;;4.55;3.42;;;14.10;99.90;;;;;;1993369;72;21047;-71
2021/08/21 04:32:35;;;;;;;4.20;3.80;;;14.10;99.90;;;;;;1953078;73;21075;-71
2021/08/21 04:35:01;;;;;;;4.22;3.85;;;14.10;99.90;;;;;;1993108;71;21132;-71
2021/08/21 04:37:27;;;;;;;4.97;3.58;;;14.10;99.90;;;;;;1993176;71;21024;-71
2021/08/21 04:39:54;;;;;;;4.28;3.65;;;14.10;99.90;;;;;;1953247;73;21047;-71
2021/08/21 04:42:20;;;;;;;7.12;3.70;;;14.20;99.90;;;;;;1993011;72;21167;-71
2021/08/21 04:44:46;;;;;;;4.60;4.20;;;14.20;99.90;;;;;;1993369;72;21047;-71
2021/08/21 04:47:12;;;;;;;4.65;4.22;;;14.20;99.90;;;;;;1953180;73;21130;-72
2021/08/21 04:49:38;;;;;;;6.05;4.10;;;14.30;99.90;;;;;;1992893;72;21035;-71
2021/08/21 04:52:04;;;;;;;4.00;3.60;;;14.30;99.90;;;;;;1993393;72;21137;-72
2021/08/21 04:54:30;;;;;;;4.05;3.33;;;14.40;99.90;;;;;;1953265;73;21124;-72
2021/08/21 04:56:56;;;;;;;12.00;3.67;;;14.40;99.90;;;;;;1993546;70;21020;-72
2021/08/21 04:59:23;;;;;;;4.12;3.67;;;14.40;99.90;;;;;;1993356;72;21055;-72
2021/08/21 05:01:49;;;;;;;3.55;3.25;;;14.50;99.90;;;;;;1953230;73;21050;-71
2021/08/21 05:04:15;;;;;;;3.42;3.12;;;14.50;99.90;;;;;;1993056;72;21112;-71
2021/08/21 05:06:41;;;;;;;4.08;3.77;;;14.60;99.90;;;;;;1993245;72;21045;-72
2021/08/21 05:09:07;;;;;;;3.85;3.45;;;14.70;99.90;;;;;;1953115;73;21079;-72
2021/08/21 05:11:33;;;;;;;5.22;4.00;;;14.70;99.90;;;;;;1992916;72;21039;-71
2021/08/21 05:13:59;;;;;;;6.10;4.15;;;14.80;99.90;;;;;;1993245;72;21051;-72
2021/08/21 05:16:25;;;;;;;4.22;3.90;;;14.80;99.90;;;;;;1953227;73;21027;-72
2021/08/21 05:18:56;;;;;;;5.65;3.95;;;14.80;99.90;;;;;;1994045;71;21128;-70
2021/08/21 05:21:30;;;;;;;5.05;4.03;;;14.90;99.90;;;;;;1992081;72;21088;-71
2021/08/21 05:23:53;;;;;;;4.55;4.15;;;15.00;99.90;;;;;;1952626;73;21168;-72
2021/08/21 05:26:19;;;;;;;6.60;4.20;;;15.00;99.90;;;;;;1993455;71;21051;-72
2021/08/21 05:28:45;;;;;;;5.67;4.33;;;15.00;99.90;;;;;;1993149;72;21051;-73
2021/08/21 05:31:11;;;;;;;7.17;4.42;;;15.10;99.90;;;;;;1953254;73;21124;-72
2021/08/21 05:33:38;;;;;;;5.22;3.95;;;15.10;99.90;;;;;;1993302;71;21000;-72
2021/08/21 05:36:04;;;;;;;12.30;4.42;;;15.10;99.90;;;;;;1993152;71;21051;-72
2021/08/21 05:38:30;;;;;;;5.45;4.40;;;15.20;99.90;;;;;;1953167;73;21072;-72
2021/08/21 05:40:56;;;;;;;10.05;4.50;;;15.30;99.90;;;;;;1993160;72;21043;-72
2021/08/21 05:43:22;;;;;;;9.60;3.75;;;15.40;99.90;;;;;;1993345;72;21114;-72
2021/08/21 05:45:48;;;;;;;6.10;4.92;;;15.40;99.90;;;;;;1953061;73;21143;-73
2021/08/21 05:48:14;;;;;;;5.87;4.75;;;15.30;99.90;;;;;;1993180;71;21047;-74
2021/08/21 05:50:41;;;;;;;4.70;4.20;;;15.30;99.90;;;;;;1993132;72;21169;-73
2021/08/21 05:53:07;;;;;;;10.63;4.97;;;15.40;99.90;;;;;;1951909;72;21078;-73
2021/08/21 05:55:33;;;;;;;6.30;4.33;;;15.40;99.90;;;;;;1993815;71;21120;-73
2021/08/21 05:57:59;;;;;;;4.58;4.05;;;15.50;99.90;;;;;;1993348;72;21192;-74
2021/08/21 06:00:25;;;;;;;8.73;4.92;;;15.60;99.90;;;;;;1953030;73;21083;-73
2021/08/21 06:02:52;;;;;;;8.93;4.35;;;15.70;99.90;;;;;;1993724;71;21078;-73
2021/08/21 06:05:18;;;;;;;11.63;5.37;;;15.70;99.90;;;;;;1993213;72;21049;-73
2021/08/21 06:07:44;;;;;;;8.03;4.80;;;15.70;99.90;;;;;;1953103;73;21154;-74
2021/08/21 06:10:10;;;;;;;5.80;4.58;;;15.70;99.90;;;;;;1991032;72;21108;-73
2021/08/21 06:12:36;;;;;;;7.72;5.25;;;15.80;99.90;;;;;;1993191;72;21043;-73
2021/08/21 06:15:02;;;;;;;5.25;4.40;;;15.80;99.90;;;;;;1953132;73;21122;-73
2021/08/21 06:17:29;;;;;;;6.20;5.03;;;15.90;99.90;;;;;;1990656;72;21076;-73
2021/08/21 06:19:56;;;;;;;4.92;4.35;;;16.00;99.90;;;;;;1993321;72;21044;-71
2021/08/21 06:22:22;;;;;;;7.75;5.08;;;16.10;99.90;;;;;;1953255;72;21167;-72
2021/08/21 06:24:49;;;;;;;5.17;4.45;;;16.20;99.90;;;;;;1989202;72;21043;-73
2021/08/21 06:27:15;;;;;;;6.17;4.60;;;16.40;99.90;;;;;;1993286;72;21047;-72
2021/08/21 06:29:41;;;;;;;5.33;3.95;;;16.30;99.90;;;;;;1952968;73;21031;-71
2021/08/21 06:32:07;;;;;;;6.62;4.10;;;16.30;99.90;;;;;;1992075;72;21043;-72
2021/08/21 06:34:33;;;;;;;5.22;3.72;;;16.40;99.90;;;;;;1993101;72;21109;-72
2021/08/21 06:36:59;;;;;;;8.08;4.70;;;16.50;99.90;;;;;;1953217;73;21080;-73
2021/08/21 06:39:26;;;;;;;5.97;4.78;;;16.50;99.90;;;;;;1992978;72;21108;-71
2021/08/21 06:41:52;;;;;;;9.13;4.40;;;16.40;99.90;;;;;;1993384;72;21164;-72
2021/08/21 06:44:18;;;;;;;12.95;4.47;;;16.50;99.90;;;;;;1953112;73;21027;-72
2021/08/21 06:46:44;;;;;;;6.28;4.53;;;16.60;99.90;;;;;;1985102;72;21118;-72
2021/08/21 06:49:10;;;;;;;4.87;4.12;;;16.80;99.90;;;;;;1993395;72;21047;-71
2021/08/21 06:51:36;;;;;;;9.75;4.65;;;16.70;99.90;;;;;;1952999;73;21075;-72
2021/08/21 06:54:03;;;;;;;6.17;4.62;;;16.90;99.90;;;;;;1993083;72;21148;-72
2021/08/21 06:56:29;;;;;;;4.95;4.30;;;16.90;99.90;;;;;;1993152;72;21043;-71
2021/08/21 06:58:57;;;;;;;6.70;4.58;;;17.00;99.90;;;;;;1954177;73;21056;-70
2021/08/21 07:01:23;;;;;;;5.15;4.15;;;17.30;99.90;;;;;;1997478;70;21249;-72
2021/08/21 07:03:49;;;;;;;6.87;4.53;;;17.40;99.90;;;;;;1997051;69;21090;-70
2021/08/21 07:06:15;;;;;;;6.95;4.47;;;17.50;99.90;;;;;;1956806;72;20984;-71
2021/08/21 07:08:42;;;;;;;8.63;4.83;;;17.70;99.90;;;;;;1997263;71;21025;-70
2021/08/21 07:11:08;;;;;;;4.58;4.17;;;17.70;99.90;;;;;;1993330;72;21019;-71
2021/08/21 07:13:34;;;;;;;7.22;4.05;;;17.80;99.90;;;;;;1953374;73;21051;-71
2021/08/21 07:16:00;;;;;;;7.55;4.35;;;18.00;99.90;;;;;;1992895;72;21047;-71
2021/08/21 07:18:26;;;;;;;7.83;4.53;;;17.80;99.90;;;;;;1993328;72;21020;-71
2021/08/21 07:20:52;;;;;;;8.73;4.35;;;17.90;99.90;;;;;;1953063;73;21127;-71
2021/08/21 07:23:18;;;;;;;6.80;4.03;;;18.10;99.90;;;;;;1994073;71;21063;-72
2021/08/21 07:25:44;;;;;;;5.25;4.35;;;18.20;99.90;;;;;;1993159;70;21055;-72
2021/08/21 07:28:11;;;;;;;5.47;3.90;;;18.30;99.90;;;;;;1953323;73;21047;-71
2021/08/21 07:30:37;;;;;;;6.47;4.70;;;18.40;99.90;;;;;;1993412;71;21109;-71
2021/08/21 07:33:03;;;;;;;4.87;4.40;;;18.30;99.90;;;;;;1993254;72;21051;-72
2021/08/21 07:35:29;;;;;;;4.50;4.10;;;18.30;99.90;;;;;;1953166;73;21050;-73
2021/08/21 07:37:55;;;;;;;9.63;4.35;;;18.50;99.90;;;;;;1992912;72;21047;-73
2021/08/21 07:40:21;;;;;;;5.75;4.37;;;18.50;99.90;;;;;;1993217;72;21569;-77
2021/08/21 07:42:47;;;;;;;6.33;4.17;;;18.50;99.90;;;;;;1952922;73;21448;-79
2021/08/21 07:45:14;;;;;;;5.55;4.30;;;18.80;99.90;;;;;;1993013;72;21556;-79
2021/08/21 07:47:40;;;;;;;4.87;3.83;;;19.30;99.90;;;;;;1993133;72;21113;-79
2021/08/21 07:50:06;;;;;;;3.47;3.10;;;19.80;99.90;;;;;;1952440;73;21075;-80
2021/08/21 07:52:32;;;;;;;5.33;3.40;;;19.90;99.90;;;;;;1979556;72;21129;-78
2021/08/21 07:54:58;;;;;;;4.90;3.25;;;20.00;99.90;;;;;;1976069;73;21024;-78
2021/08/21 07:57:24;;;;;;;3.55;2.98;;;20.40;99.90;;;;;;1944210;73;21054;-79
2021/08/21 07:59:50;;;;;;;5.20;3.17;;;20.60;99.90;;;;;;1988674;72;21552;-76
2021/08/21 08:02:17;;;;;;;3.77;2.65;;;20.80;99.90;;;;;;1993321;72;21585;-77
2021/08/21 08:04:43;;;;;;;5.22;3.40;;;21.00;99.90;;;;;;1953031;73;21595;-77
2021/08/21 08:07:09;;;;;;;4.67;3.33;;;21.10;99.90;;;;;;1993098;72;21447;-77
2021/08/21 08:09:35;;;;;;;3.25;2.92;;;21.80;99.90;;;;;;1993156;72;21467;-77
2021/08/21 08:12:01;;;;;;;4.03;2.87;;;21.80;99.90;;;;;;1953136;73;21526;-76
2021/08/21 08:14:27;;;;;;;2.83;2.62;;;22.30;99.90;;;;;;1993077;72;21459;-77
2021/08/21 08:16:53;;;;;;;6.20;3.00;;;22.60;99.90;;;;;;1993216;72;21051;-78
2021/08/21 08:19:19;;;;;;;5.25;2.47;;;22.20;99.90;;;;;;1953210;73;21075;-79
2021/08/21 08:21:46;;;;;;;5.67;3.37;;;22.00;99.90;;;;;;1993258;70;21043;-78
2021/08/21 08:24:13;;;;;;;5.17;3.37;;;21.90;99.90;;;;;;1993150;72;21055;-78
2021/08/21 08:26:40;;;;;;;6.10;2.77;;;22.30;99.90;;;;;;1967037;72;21428;-79
2021/08/21 08:29:06;;;;;;;3.45;2.62;;;22.70;99.90;;;;;;1977882;72;21525;-77
2021/08/21 08:31:32;;;;;;;8.05;3.15;;;22.80;99.90;;;;;;1979240;71;21508;-78
2021/08/21 08:33:58;;;;;;;6.25;3.15;;;23.20;99.90;;;;;;1979284;72;21504;-78
2021/08/21 08:36:24;;;;;;;6.08;3.42;;;23.50;99.90;;;;;;1979234;72;21505;-78
2021/08/21 08:38:50;;;;;;;9.65;3.72;;;23.80;99.90;;;;;;1979225;72;21421;-78
2021/08/21 08:41:16;;;;;;;5.72;3.12;;;23.80;99.90;;;;;;1979306;72;21125;-78
2021/08/21 08:43:43;;;;;;;3.50;2.62;;;23.60;99.90;;;;;;1979400;71;21128;-78
2021/08/21 08:46:09;;;;;;;5.87;3.02;;;23.30;99.90;;;;;;1979384;72;21103;-79
2021/08/21 08:48:38;;;;;;;2.80;2.58;;;23.70;99.90;;;;;;1979366;71;21039;-78
2021/08/21 08:51:04;;;;;;;6.43;2.97;;;23.70;99.90;;;;;;1979366;71;21055;-77
2021/08/21 08:53:30;;;;;;;3.45;2.70;;;24.00;99.90;;;;;;1979149;72;21076;-77
2021/08/21 08:55:57;;;;;;;3.37;2.77;;;24.20;99.90;;;;;;1979497;71;21044;-76
2021/08/21 08:58:23;;;;;;;4.28;2.55;;;24.30;99.90;;;;;;1979802;72;21075;-76
2021/08/21 09:00:49;;;;;;;2.83;2.37;;;24.90;99.90;;;;;;1979561;72;21044;-77
2021/08/21 09:03:15;;;;;;;4.42;2.70;;;24.60;99.90;;;;;;1979778;72;21063;-77
2021/08/21 09:05:41;;;;;;;4.83;2.87;;;25.20;99.90;;;;;;1979594;72;21068;-76
2021/08/21 09:08:07;;;;;;;5.90;3.37;;;25.40;99.90;;;;;;1979775;72;21168;-76
2021/08/21 09:10:33;;;;;;;2.20;2.08;;;25.40;99.90;;;;;;1979491;72;21208;-76
2021/08/21 09:12:59;;;;;;;3.20;2.52;;;25.90;99.90;;;;;;1979525;71;21072;-77
2021/08/21 09:15:25;;;;;;;10.40;2.65;;;25.70;99.90;;;;;;1979742;72;21038;-75
2021/08/21 09:17:52;;;;;;;5.22;2.55;;;24.90;99.90;;;;;;1979493;72;21128;-75
2021/08/21 09:20:20;;;;;;;3.62;2.50;;;24.90;99.90;;;;;;1979551;71;21447;-74
2021/08/21 09:22:47;;;;;;;6.30;3.10;;;25.60;99.90;;;;;;1979812;71;21076;-76
2021/08/21 09:25:13;;;;;;;4.40;2.52;;;26.10;99.90;;;;;;1979518;71;21071;-76
2021/08/21 09:27:39;;;;;;;4.65;2.62;;;26.00;99.90;;;;;;1979420;72;21536;-76
2021/08/21 09:30:05;;;;;;;3.55;2.65;;;26.50;99.90;;;;;;1979411;71;21066;-84
2021/08/21 09:32:32;;;;;;;5.22;2.98;;;26.50;99.90;;;;;;1980353;72;21043;-86
2021/08/21 09:34:59;;;;;;;3.08;2.77;;;26.70;99.90;;;;;;1980171;72;21051;-87
2021/08/21 09:37:25;;;;;;;2.95;2.55;;;25.90;99.90;;;;;;1980276;71;21047;-84
2021/08/21 09:39:51;;;;;;;4.72;2.67;;;25.00;99.90;;;;;;1967144;72;21050;-85
2021/08/21 09:42:17;;;;;;;2.98;2.55;;;24.90;99.90;;;;;;1979651;72;21153;-86
2021/08/21 09:44:44;;;;;;;5.40;2.98;;;25.40;99.90;;;;;;1980952;71;21099;-85
2021/08/21 09:47:10;;;;;;;2.52;2.27;;;25.80;99.90;;;;;;1979307;72;21113;-84
2021/08/21 09:49:36;;;;;;;4.12;2.83;;;25.70;99.90;;;;;;1979216;72;21075;-84
2021/08/21 09:52:02;;;;;;;5.58;3.17;;;25.70;99.90;;;;;;1979216;72;21083;-84
2021/08/21 09:54:28;;;;;;;3.33;2.42;;;26.30;99.90;;;;;;1979250;72;21162;-84
2021/08/21 09:56:54;;;;;;;3.62;2.75;;;26.00;99.90;;;;;;1979166;71;21076;-74
2021/08/21 09:59:20;;;;;;;12.98;3.70;;;26.00;99.90;;;;;;1979249;72;21076;-75
2021/08/21 10:01:47;;;;;;;3.62;2.20;;;26.00;99.90;;;;;;1974797;72;21080;-75
2021/08/21 10:04:13;;;;;;;3.83;2.80;;;26.90;99.90;;;;;;1979338;72;21488;-75
2021/08/21 10:06:39;;;;;;;2.62;2.40;;;27.10;99.90;;;;;;1979171;72;21032;-77
2021/08/21 10:09:10;;;;;;;4.58;3.20;;;27.20;99.90;;;;;;1979520;72;21052;-75
2021/08/21 10:11:33;;;;;;;7.67;2.85;;;27.70;99.90;;;;;;1977818;72;21116;-75
2021/08/21 10:14:00;;;;;;;3.58;2.40;;;27.80;99.90;;;;;;1979254;72;21153;-76
2021/08/21 10:16:26;;;;;;;3.20;2.40;;;28.40;99.90;;;;;;1979261;71;21076;-76
2021/08/21 10:18:52;;;;;;;3.05;2.55;;;28.60;99.90;;;;;;1979282;72;21076;-78
2021/08/21 10:21:19;;;;;;;3.55;2.52;;;28.80;99.90;;;;;;1979202;72;21064;-79
2021/08/21 10:23:45;;;;;;;3.45;2.65;;;28.40;99.90;;;;;;1979143;72;21132;-77
2021/08/21 10:26:11;;;;;;;3.10;2.20;;;27.70;99.90;;;;;;1979146;72;21512;-76
2021/08/21 10:28:37;;;;;;;2.83;2.50;;;28.20;99.90;;;;;;1979127;72;21540;-77
2021/08/21 10:31:04;;;;;;;3.85;2.52;;;28.70;99.90;;;;;;1979148;72;21586;-77
2021/08/21 10:33:31;;;;;;;4.85;2.85;;;28.50;99.90;;;;;;1979422;72;21125;-80
2021/08/21 10:35:57;;;;;;;3.98;2.65;;;29.00;99.90;;;;;;1979231;72;21076;-80
2021/08/21 10:38:24;;;;;;;3.05;2.60;;;29.20;99.90;;;;;;1979306;72;21067;-79
2021/08/21 10:40:50;;;;;;;5.58;2.58;;;28.40;99.90;;;;;;1979119;72;21162;-79
2021/08/21 10:43:16;;;;;;;2.75;2.50;;;28.00;99.90;;;;;;1979287;72;21051;-79
2021/08/21 10:45:42;;;;;;;3.20;2.52;;;28.10;99.90;;;;;;1979125;72;21075;-79
2021/08/21 10:48:09;;;;;;;5.12;2.80;;;28.00;99.90;;;;;;1979333;72;21039;-74
2021/08/21 10:50:35;;;;;;;3.30;2.85;;;28.50;99.90;;;;;;1979066;72;21150;-75
2021/08/21 10:53:01;;;;;;;4.05;2.95;;;28.80;99.90;;;;;;1979290;72;21090;-76
2021/08/21 10:55:27;;;;;;;4.25;3.00;;;29.30;99.90;;;;;;1979218;72;21079;-76
2021/08/21 10:57:54;;;;;;;4.55;3.00;;;29.00;99.90;;;;;;1979350;71;21090;-79
2021/08/21 11:00:20;;;;;;;2.55;2.33;;;29.00;99.90;;;;;;1979206;72;21048;-79
2021/08/21 11:02:46;;;;;;;3.90;2.83;;;29.20;99.90;;;;;;1979135;72;21075;-81
2021/08/21 11:05:12;;;;;;;4.50;2.42;;;29.10;99.90;;;;;;1979125;72;21064;-81
2021/08/21 11:07:38;;;;;;;4.03;2.80;;;28.90;99.90;;;;;;1979336;72;21051;-83
2021/08/21 11:10:04;;;;;;;3.52;2.45;;;29.00;99.90;;;;;;1979131;72;21069;-83
2021/08/21 11:12:30;;;;;;;4.80;2.65;;;28.70;99.90;;;;;;1979211;72;21072;-84
2021/08/21 11:14:56;;;;;;;8.73;3.08;;;29.20;99.90;;;;;;1979195;72;21084;-83
2021/08/21 11:17:23;;;;;;;3.70;3.35;;;29.70;99.90;;;;;;1979219;72;21170;-84
2021/08/21 11:19:49;;;;;;;6.08;2.83;;;29.00;99.90;;;;;;1979190;72;21041;-84
2021/08/21 11:22:15;;;;;;;5.22;2.70;;;29.00;99.90;;;;;;1979161;71;21072;-83
2021/08/21 11:24:41;;;;;;;5.08;3.12;;;29.20;99.90;;;;;;1979265;71;21056;-82
2021/08/21 11:27:07;;;;;;;4.60;3.37;;;29.10;99.90;;;;;;1979497;72;21051;-83
2021/08/21 11:29:33;;;;;;;6.15;3.42;;;28.60;99.90;;;;;;1979242;71;21102;-83
2021/08/21 11:31:59;;;;;;;3.10;2.72;;;28.50;99.90;;;;;;1979258;72;21190;-83
2021/08/21 11:34:26;;;;;;;5.62;3.20;;;28.80;99.90;;;;;;1979178;72;21488;-83
2021/08/21 11:36:52;;;;;;;5.58;2.92;;;29.20;99.90;;;;;;1979395;71;21532;-84
2021/08/21 11:39:18;;;;;;;4.70;2.80;;;28.90;99.90;;;;;;1980139;71;21565;-84
2021/08/21 11:41:44;;;;;;;5.65;2.98;;;28.90;99.90;;;;;;1980943;72;21044;-83
2021/08/21 11:44:10;;;;;;;6.72;3.25;;;29.30;99.90;;;;;;1979685;71;21173;-84
2021/08/21 11:46:36;;;;;;;2.92;2.67;;;29.90;99.90;;;;;;1979235;72;21092;-83
2021/08/21 11:49:02;;;;;;;4.42;3.02;;;30.20;99.90;;;;;;1979346;72;21043;-83
2021/08/21 11:51:28;;;;;;;4.45;2.67;;;29.70;99.90;;;;;;1979398;71;21128;-84
2021/08/21 11:53:55;;;;;;;4.22;2.90;;;30.10;99.90;;;;;;1980270;72;21102;-84
2021/08/21 11:56:21;;;;;;;2.83;2.62;;;30.20;99.90;;;;;;1982799;71;21125;-83
2021/08/21 11:58:47;;;;;;;3.90;3.12;;;30.40;99.90;;;;;;1982107;71;21064;-84
2021/08/21 12:01:14;;;;;;;3.12;2.77;;;30.90;99.90;;;;;;1979512;72;21133;-84
2021/08/21 12:06:14;;;;;;;5.72;3.20;;;31.10;99.90;;;;;;1979381;71;21124;-84
2021/08/21 12:08:40;;;;;;;4.87;2.98;;;31.10;99.90;;;;;;1979316;72;21170;-84
2021/08/21 12:11:06;;;;;;;5.12;2.75;;;31.40;99.90;;;;;;1975186;71;21171;-84
2021/08/21 12:13:32;;;;;;;4.95;3.02;;;31.60;99.90;;;;;;1968888;72;21087;-84
2021/08/21 12:18:42;;;;;;;3.35;2.65;;;32.50;99.90;;;;;;1979338;72;21023;-84
2021/08/21 12:21:08;;;;;;;4.58;2.87;;;31.80;99.90;;;;;;1979429;72;21116;-84
2021/08/21 12:23:35;;;;;;;4.22;2.40;;;31.80;99.90;;;;;;1979180;72;21153;-84
2021/08/21 12:26:01;;;;;;;2.72;2.40;;;31.60;99.90;;;;;;1979261;72;21186;-83
2021/08/21 12:28:27;;;;;;;3.47;2.70;;;32.20;99.90;;;;;;1979128;72;21165;-84
2021/08/21 12:30:53;;;;;;;5.22;2.30;;;32.40;99.90;;;;;;1980059;72;21052;-84
2021/08/21 12:33:19;;;;;;;4.65;2.60;;;31.60;99.90;;;;;;1983173;72;21045;-83
2021/08/21 12:35:45;;;;;;;5.70;2.40;;;32.10;99.90;;;;;;1982089;72;21090;-84
2021/08/21 12:38:11;;;;;;;2.85;2.27;;;32.70;99.90;;;;;;1979250;72;21243;-84
2021/08/21 12:40:37;;;;;;;3.70;2.33;;;33.00;99.90;;;;;;1979402;72;21032;-83
2021/08/21 12:43:05;;;;;;;3.75;2.47;;;33.00;99.90;;;;;;1979313;72;21228;-79
2021/08/21 12:45:31;;;;;;;3.27;2.12;;;33.00;99.90;;;;;;1979656;72;21136;-80
2021/08/21 12:47:57;;;;;;;3.35;2.40;;;32.90;99.90;;;;;;1979756;71;21036;-80